Record high temperature 52.3°C Record low temperature -14.8°C Record high gust 66.0 kts Record high average 44.0 kts Record daily rain 221.2 mm Record low windchill -23.5°C Record high barometer 1099.9 hPa Record low barometer 815.2 hPa
Daily high pressure 1018.7 hPa Daily low pressure 1015.2 hPa Daily low windchill 18.5°C Daily high heat index 23.4°C Daily high gust speed 14.0 kts S Daily high average speed 13.4 kts S
Potts Point Sydney
LAST READING AT TIME: 03:40 DATE: 22 February 2018, time of next update: 03:50
Current WeatherClear Current Temperature 20.3°C (68.5°F) (Heat Index 20.3°C ), Apparent temp 21.7°C
Maximum Temperature (since 9am)23.4°C at: 14:07 Minimum Temperature (since 9am)18.5°C at: 09:00
Average windspeed (ten minute)0.0 kts (0.0 kmh) Wind Direction (ten minute)W (268°)
Heat Index 20.3°C Maximum Gust (last hour)0.0 kts (0.0 kmh) at: 02:38
Maximum Gust (since 9am)14.0 kts (25.9 kmh) at: 15:49 Maximum 1 minute average (since 9am)13.4 kts (24.8 kmh) at: 18:12
Rainfall (last hour)0.0 mm Rainfall (since 9am)0.0 mm (0.00 in.)---
Rainfall This month 9.2 mm (0.36 in.) Rainfall To date this year 15.3 mm (0.60 in.)
Maximum rain per minute (last hour)0.0 mm/min Maximum rain per hour (last 6 hours)0.0 mm/hour
Yesterdays rainfall 0.0 mm DewPoint 14.6°C (Wet Bulb :17.0°C )
Humidity 70 %, Humidex 24.1°C Barometer corrected to msl1015.4 hPa
Pressure change -0.3 hPa (last hour) Trend (last hour)STEADY
Pressure change (last 12 hours)-1.2 hPa Pressure change (last 6 hours)-1.7 hPa
Current Indoor Temp. 25.9°C
Current Indoor Hum. 54%

This page is updated from recent data collected by a WS2310 weather station Use the Reload or Refresh facility on your browser to retrieve the latest data.


Click here for the last 24 hour graph
Click here for the last 48 hour graph
Click here for the last 72 hour graph
Click here for the month to date graph

Animated web cam image


Weather report/warning/Metars

Sydney Airport, Australia (YSSY) 33-57S 151-11E 3M
Feb 21, 2018 - 11:00 AM EST / 2018.02.21 1600 UTC
Wind: from the WNW (290 degrees) at 5 MPH (4 KT):0
Visibility: greater than 7 mile(s):0
Sky conditions: mostly cloudy
Temperature: 68 F (20 C)
Dew Point: 57 F (14 C)
Relative Humidity: 68%
Pressure (altimeter): 30.00 in. Hg (1016 hPa)
ob: YSSY 211600Z 29004KT 9999 FEW035 BKN225 20/14 Q1016
cycle: 16
Auckland Airport, New Zealand (NZAA) 37-01S 174-48E 6M
Feb 21, 2018 - 11:00 AM EST / 2018.02.21 1600 UTC
Wind: from the NW (320 degrees) at 10 MPH (9 KT) (direction variable):0
Visibility: greater than 7 mile(s):0
Sky conditions: mostly cloudy
Weather: drizzle
Temperature: 62 F (17 C)
Dew Point: 59 F (15 C)
Relative Humidity: 88%
Pressure (altimeter): 29.77 in. Hg (1008 hPa)
ob: NZAA 211600Z AUTO 32009KT 280V350 9999 DZ SCT039/// SCT055/// BKN095/// 17/15 Q1008 NOSIG
cycle: 16